Birch Creek GC
600 E Center St, Smithfield
Last Weather Update:07/31/2011 10:00:00 PM
Date
ETo
ETc
Rain
Irrigation
Req
Temp
Max
Temp
Min
Temp
Avg
Avg RH
Avg Wind
Avg Solar
inches
inches
incehs
inches
F
F
F
%
%
watts/m2
06/01/2011 0.30" 0.24" 0.00" 0.24" 75.9° 47.6° 64.0° 18.3% 7.5 MPH 316.5w/m2
06/02/2011 0.19" 0.15" 0.00" 0.15" 64.5° 39.3° 50.1° 75.8% 6.2 MPH 283.5w/m2
06/03/2011 0.20" 0.16" 0.00" 0.16" 62.0° 35.0° 49.0° 41.7% 3.7 MPH 370.3w/m2
06/04/2011 0.24" 0.19" 0.00" 0.19" 76.3° 39.7° 58.1° 43.3% 4.1 MPH 358.4w/m2
06/05/2011 0.27" 0.22" 0.00" 0.22" 82.0° 47.7° 65.4° 44.1% 3.7 MPH 372.2w/m2
06/06/2011 0.18" 0.15" 0.14" 0.03" 78.3° 50.5° 59.9° 58.9% 5.2 MPH 225.5w/m2
06/07/2011 0.15" 0.12" 0.00" 0.12" 65.1° 48.9° 55.5° 79.1% 4.4 MPH 226.2w/m2
06/08/2011 0.17" 0.13" 0.19" -0.02" 71.0° 42.5° 52.9° 87.3% 3.8 MPH 284.0w/m2
06/09/2011 0.13" 0.10" 0.26" -0.11" 61.6° 40.7° 49.0° 76.6% 3.8 MPH 225.0w/m2
06/10/2011 0.20" 0.16" 0.07" 0.11" 69.2° 38.1° 54.7° 82.5% 3.7 MPH 335.9w/m2
06/11/2011 0.19" 0.15" 0.00" 0.15" 72.4° 49.0° 60.2° 69.0% 3.7 MPH 291.8w/m2
06/12/2011 0.13" 0.10" 0.01" 0.09" 72.8° 51.1° 59.0° 65.4% 3.1 MPH 193.2w/m2
06/13/2011 0.11" 0.09" 0.25" -0.11" 68.6° 48.2° 56.0° 69.5% 4.8 MPH 173.8w/m2
06/14/2011 0.24" 0.19" 0.00" 0.19" 71.5° 48.9° 60.4° 66.3% 3.7 MPH 373.6w/m2
06/15/2011 0.25" 0.20" 0.00" 0.20" 78.8° 46.8° 62.2° 47.6% 4.2 MPH 363.2w/m2
06/16/2011 0.14" 0.11" 0.00" 0.11" 61.9° 40.7° 51.8° 70.9% 4.3 MPH 220.4w/m2
06/17/2011 0.22" 0.18" 0.00" 0.18" 67.2° 36.2° 52.9° 57.4% 3.2 MPH 368.6w/m2
06/18/2011 0.20" 0.16" 0.06" 0.12" 73.1° 43.0° 58.4° 92.4% 3.8 MPH 289.7w/m2
06/19/2011 0.11" 0.08" 0.28" -0.14" 61.6° 46.5° 52.7° 76.4% 3.3 MPH 183.5w/m2
06/20/2011 0.22" 0.18" 0.00" 0.18" 70.0° 46.6° 58.4° 68.6% 3.6 MPH 359.1w/m2
06/21/2011 0.24" 0.19" 0.00" 0.19" 77.7° 47.4° 62.8° 61.5% 3.1 MPH 362.8w/m2
06/22/2011 0.26" 0.21" 0.00" 0.21" 84.9° 51.3° 67.6° 53.9% 3.1 MPH 370.7w/m2
06/23/2011 0.27" 0.22" 0.00" 0.22" 85.9° 56.5° 70.5° 64.9% 4.3 MPH 357.5w/m2
06/24/2011 0.25" 0.20" 0.00" 0.20" 81.7° 55.5° 67.4° 69.0% 3.6 MPH 353.2w/m2
06/25/2011 0.25" 0.20" 0.00" 0.20" 83.5° 51.3° 65.9° 66.5% 3.4 MPH 365.5w/m2
06/26/2011 0.25" 0.20" 0.00" 0.20" 76.7° 55.6° 65.6° 48.8% 4.0 MPH 357.7w/m2
06/27/2011 0.26" 0.21" 0.00" 0.21" 84.2° 47.9° 66.4° 59.3% 3.5 MPH 363.9w/m2
06/28/2011 0.34" 0.27" 0.00" 0.27" 89.9° 54.6° 74.4° 18.0% 6.5 MPH 342.0w/m2
06/29/2011 0.34" 0.27" 0.00" 0.27" 86.0° 63.3° 78.3° 51.4% 10.2 MPH 229.7w/m2
06/30/2011 0.25" 0.20" 0.00" 0.20" 81.7° 54.0° 66.7° 58.2% 3.9 MPH 343.7w/m2
Totals: 6.54" 5.23" 1.26" 4.22" 89.9° 35.0° 60.5° 61.4% 4.3 MPH 308.7w/m2